createdAt,value
2019-01-27T00:00:09.618Z,99740.53
2019-01-27T00:02:39.283Z,99736.80
2019-01-27T00:05:09.424Z,99725.73
2019-01-27T00:07:39.190Z,99723.76
2019-01-27T00:10:09.924Z,99725.52
2019-01-27T00:12:39.769Z,99714.74
2019-01-27T00:15:10.410Z,99706.77
2019-01-27T00:17:40.243Z,99712.03
2019-01-27T00:20:11.737Z,99714.41
2019-01-27T00:22:41.407Z,99705.69
2019-01-27T00:25:11.145Z,99704.98
2019-01-27T00:27:40.814Z,99699.07
2019-01-27T00:30:15.790Z,99696.65
2019-01-27T00:32:45.544Z,99688.92
2019-01-27T00:35:15.333Z,99684.95
2019-01-27T00:37:45.808Z,99684.56
2019-01-27T00:40:15.892Z,99670.67
2019-01-27T00:42:46.059Z,99673.56
2019-01-27T00:45:17.113Z,99670.83
2019-01-27T00:47:47.190Z,99666.95
2019-01-27T00:50:18.153Z,99664.53
2019-01-27T00:52:47.859Z,99663.19
2019-01-27T00:55:19.370Z,99657.64
2019-01-27T00:57:49.250Z,99652.60
2019-01-27T01:00:21.738Z,99650.56
2019-01-27T01:02:51.664Z,99646.45
2019-01-27T01:05:21.361Z,99641.48
2019-01-27T01:07:51.050Z,99640.11
2019-01-27T01:10:21.200Z,99630.56
2019-01-27T01:12:51.292Z,99625.31
2019-01-27T01:15:21.165Z,99506.27
2019-01-27T01:17:51.121Z,99620.00
2019-01-27T01:20:21.638Z,99614.42
2019-01-27T01:22:51.618Z,99610.90
2019-01-27T01:25:22.811Z,99600.62
2019-01-27T01:27:52.639Z,99600.78
2019-01-27T01:30:25.216Z,99591.94
2019-01-27T01:32:55.133Z,99597.33
2019-01-27T01:35:25.074Z,99597.91
2019-01-27T01:37:54.956Z,99586.77
2019-01-27T01:40:25.689Z,99584.19
2019-01-27T01:42:55.979Z,99577.89
2019-01-27T01:45:31.262Z,99577.66
2019-01-27T01:48:01.186Z,99569.61
2019-01-27T01:50:31.344Z,99564.84
2019-01-27T01:53:01.362Z,99553.97
2019-01-27T01:55:31.329Z,99549.75
2019-01-27T01:58:01.321Z,99549.36
2019-01-27T02:00:31.481Z,99544.00
2019-01-27T02:03:01.263Z,99539.35
2019-01-27T02:05:31.053Z,99537.39
2019-01-27T02:08:01.803Z,99534.97
2019-01-27T02:10:31.494Z,99523.56
2019-01-27T02:13:01.395Z,99514.53
2019-01-27T02:16:04.153Z,99506.48
2019-01-27T02:18:34.273Z,99509.19
2019-01-27T02:21:04.984Z,99505.50
2019-01-27T02:23:34.882Z,99496.06
2019-01-27T02:26:05.117Z,99492.60
2019-01-27T02:28:34.804Z,99484.12
2019-01-27T02:31:04.704Z,99482.51
2019-01-27T02:33:34.674Z,99471.22
2019-01-27T02:36:05.032Z,99473.72
2019-01-27T02:38:34.668Z,99473.59
2019-01-27T02:41:05.641Z,99461.63
2019-01-27T02:43:35.520Z,99461.98
2019-01-27T02:46:05.788Z,99453.58
2019-01-27T02:48:35.654Z,99438.25
2019-01-27T02:51:05.965Z,99439.73
2019-01-27T02:53:35.877Z,99430.90
2019-01-27T02:56:07.946Z,99432.67
2019-01-27T02:58:37.654Z,99432.95
2019-01-27T03:01:08.398Z,99426.06
2019-01-27T03:03:38.837Z,99415.84
2019-01-27T03:06:36.482Z,99421.23
2019-01-27T03:09:12.673Z,99402.74
2019-01-27T03:11:49.714Z,99398.44
2019-01-27T03:14:20.434Z,99404.70
2019-01-27T03:16:51.639Z,99395.20
2019-01-27T03:19:21.862Z,99395.36
2019-01-27T03:21:51.800Z,99386.48
2019-01-27T03:24:21.482Z,99381.89
2019-01-27T03:26:51.164Z,99381.33
2019-01-27T03:29:21.033Z,99383.72
2019-01-27T03:31:50.741Z,99368.63
2019-01-27T03:34:20.659Z,99360.77
2019-01-27T03:36:52.031Z,99365.34
2019-01-27T03:39:21.937Z,99369.33
2019-01-27T03:41:52.979Z,99363.34
2019-01-27T03:44:22.624Z,99370.05
2019-01-27T03:46:52.345Z,99352.13
2019-01-27T03:49:22.308Z,99349.61
2019-01-27T03:51:52.019Z,99363.08
2019-01-27T03:54:21.887Z,99363.06
2019-01-27T03:56:51.577Z,99351.91
2019-01-27T03:59:21.521Z,99354.53
2019-01-27T04:01:51.371Z,99363.27
2019-01-27T04:04:21.067Z,99351.23
2019-01-27T04:06:50.769Z,99360.63
2019-01-27T04:09:20.577Z,99348.45
2019-01-27T04:11:50.544Z,99335.45
2019-01-27T04:14:20.202Z,99338.36
2019-01-27T04:16:50.029Z,99340.67
2019-01-27T04:19:19.838Z,99331.18
2019-01-27T04:21:49.693Z,99329.66
2019-01-27T04:24:19.770Z,99320.20
2019-01-27T04:26:49.508Z,99318.49
2019-01-27T04:29:19.100Z,99321.22
2019-01-27T04:31:49.129Z,99317.30
2019-01-27T04:34:18.968Z,99310.09
2019-01-27T04:36:48.758Z,99299.61
2019-01-27T04:39:18.322Z,99302.13
2019-01-27T04:41:48.154Z,99293.50
2019-01-27T04:44:18.352Z,99288.14
2019-01-27T04:46:47.957Z,99295.74
2019-01-27T04:49:17.754Z,99286.92
2019-01-27T04:51:47.597Z,99287.16
2019-01-27T04:54:17.651Z,99282.36
2019-01-27T04:56:47.411Z,99282.22
2019-01-27T04:59:17.217Z,99278.56
2019-01-27T05:01:46.921Z,99268.77
2019-01-27T05:04:23.251Z,99280.38
2019-01-27T05:06:52.898Z,99273.40
2019-01-27T05:09:22.838Z,99275.25
2019-01-27T05:11:52.588Z,99269.18
2019-01-27T05:14:22.323Z,99088.53
2019-01-27T05:16:52.472Z,99277.06
2019-01-27T05:19:22.108Z,99258.14
2019-01-27T05:21:52.188Z,99260.78
2019-01-27T05:24:22.189Z,99255.28
2019-01-27T05:26:51.936Z,99258.81
2019-01-27T05:29:21.667Z,99247.94
2019-01-27T05:31:51.378Z,99257.31
2019-01-27T05:34:21.178Z,99251.32
2019-01-27T05:36:50.836Z,99246.50
2019-01-27T05:39:20.572Z,99245.09
2019-01-27T05:41:50.660Z,99250.18
2019-01-27T05:44:20.356Z,99245.48
2019-01-27T05:46:50.579Z,99254.24
2019-01-27T05:49:20.154Z,99238.70
2019-01-27T05:51:50.154Z,99081.98
2019-01-27T05:54:20.226Z,99229.63
2019-01-27T05:56:56.461Z,99228.80
2019-01-27T05:59:21.425Z,99233.63
2019-01-27T06:01:51.312Z,99232.06
2019-01-27T06:04:21.064Z,99222.27
2019-01-27T06:06:50.940Z,99210.75
2019-01-27T06:09:20.835Z,99208.63
2019-01-27T06:11:50.773Z,99207.40
2019-01-27T06:14:20.579Z,99210.25
2019-01-27T06:16:50.507Z,99207.40
2019-01-27T06:19:20.661Z,99199.54
2019-01-27T06:21:50.384Z,99200.63
2019-01-27T06:24:22.174Z,99189.96
2019-01-27T06:26:52.007Z,99187.50
2019-01-27T06:29:21.734Z,99186.89
2019-01-27T06:31:59.933Z,99185.08
2019-01-27T06:34:29.936Z,99187.66
2019-01-27T06:36:59.551Z,99180.81
2019-01-27T06:39:30.274Z,99177.55
2019-01-27T06:42:00.101Z,99176.32
2019-01-27T06:44:30.043Z,99175.49
2019-01-27T06:46:59.645Z,99180.53
2019-01-27T06:49:29.208Z,99174.48
2019-01-27T06:51:58.784Z,99167.68
2019-01-27T06:54:28.386Z,99166.89
2019-01-27T06:56:58.141Z,99169.44
2019-01-27T06:59:49.981Z,99153.28
2019-01-27T07:02:29.907Z,99156.69
2019-01-27T07:05:18.390Z,99152.34
2019-01-27T07:08:03.544Z,99160.23
2019-01-27T07:10:55.303Z,99153.10
2019-01-27T07:13:37.956Z,99156.48
2019-01-27T07:16:35.497Z,99151.88
2019-01-27T07:19:30.093Z,99138.27
2019-01-27T07:22:21.930Z,99140.37
2019-01-27T07:25:09.261Z,99133.24
2019-01-27T07:28:09.909Z,99140.56
2019-01-27T07:31:01.477Z,99137.05
2019-01-27T07:34:05.453Z,99129.11
2019-01-27T07:36:53.548Z,99141.01
2019-01-27T07:39:42.080Z,99136.73
2019-01-27T07:42:30.845Z,99123.03
2019-01-27T07:45:25.282Z,99121.38
2019-01-27T07:48:18.433Z,99126.42
2019-01-27T07:51:12.886Z,99122.14
2019-01-27T07:54:07.728Z,99119.56
2019-01-27T07:57:03.810Z,99117.16
2019-01-27T08:00:01.699Z,99131.02
2019-01-27T08:02:50.563Z,99127.36
2019-01-27T08:05:39.216Z,99113.52
2019-01-27T08:08:31.343Z,99105.91
2019-01-27T08:11:26.073Z,99105.55
2019-01-27T08:14:20.483Z,99109.29
2019-01-27T08:17:04.272Z,99101.62
2019-01-27T08:19:58.931Z,99095.22
2019-01-27T08:22:53.721Z,99083.39
2019-01-27T08:25:46.233Z,99089.02
2019-01-27T08:28:35.166Z,99088.66
2019-01-27T08:31:24.697Z,99087.72
2019-01-27T08:34:03.593Z,99078.39
2019-01-27T08:36:39.590Z,99074.95
2019-01-27T08:39:27.691Z,99077.46
2019-01-27T08:42:18.242Z,99071.78
2019-01-27T08:45:06.741Z,99070.59
2019-01-27T08:47:36.343Z,99069.66
2019-01-27T08:50:09.022Z,99063.92
2019-01-27T08:52:38.701Z,99056.28
2019-01-27T08:55:09.824Z,99054.07
2019-01-27T08:57:39.708Z,99050.30
2019-01-27T09:00:11.801Z,99050.25
2019-01-27T09:03:03.513Z,99040.65
2019-01-27T09:05:58.402Z,99039.77
2019-01-27T09:08:56.327Z,99025.16
2019-01-27T09:11:40.571Z,99034.13
2019-01-27T09:14:38.107Z,99039.41
2019-01-27T09:17:41.978Z,99029.34
2019-01-27T09:20:29.711Z,99033.21
2019-01-27T09:23:15.792Z,99037.35
2019-01-27T09:25:54.290Z,99029.03
2019-01-27T09:28:28.991Z,99035.84
2019-01-27T09:31:16.293Z,99032.95
2019-01-27T09:34:13.290Z,99023.56
2019-01-27T09:37:03.845Z,99027.33
2019-01-27T09:39:51.013Z,99014.47
2019-01-27T09:42:45.438Z,99016.08
2019-01-27T09:45:44.208Z,99020.36
2019-01-27T09:48:39.650Z,99010.96
2019-01-27T09:51:34.451Z,99009.31
2019-01-27T09:54:28.600Z,99021.53
2019-01-27T09:57:09.518Z,99001.70
2019-01-27T09:59:56.802Z,99000.78
2019-01-27T10:02:49.164Z,98995.62
2019-01-27T10:05:31.114Z,98991.38
2019-01-27T10:08:08.516Z,98980.95
2019-01-27T10:10:57.138Z,98981.00
2019-01-27T10:13:46.606Z,98971.55
2019-01-27T10:16:44.404Z,98976.80
2019-01-27T10:19:42.428Z,98969.09
2019-01-27T10:22:29.884Z,98965.34
2019-01-27T10:25:16.076Z,98971.63
2019-01-27T10:28:03.686Z,98969.84
2019-01-27T10:31:05.002Z,98961.72
2019-01-27T10:33:54.227Z,98959.14
2019-01-27T10:36:45.945Z,98952.69
2019-01-27T10:39:34.685Z,98956.93
2019-01-27T10:42:26.493Z,98955.27
2019-01-27T10:45:05.373Z,98956.93
2019-01-27T10:47:52.851Z,98951.89
2019-01-27T10:50:56.812Z,98946.77
2019-01-27T10:53:43.106Z,98933.02
2019-01-27T10:56:44.097Z,98940.05
2019-01-27T11:00:06.556Z,98935.67
2019-01-27T11:03:12.673Z,98932.94
2019-01-27T11:06:04.914Z,98928.64
2019-01-27T11:09:10.326Z,98917.52
2019-01-27T11:12:05.806Z,98906.42
2019-01-27T11:15:01.612Z,98907.75
2019-01-27T11:17:50.409Z,98895.74
2019-01-27T11:20:42.454Z,98899.69
2019-01-27T11:23:26.931Z,98891.97
2019-01-27T11:26:13.371Z,98883.34
2019-01-27T11:29:04.694Z,98875.23
2019-01-27T11:32:06.252Z,98881.33
2019-01-27T11:34:53.457Z,98884.30
2019-01-27T11:37:42.721Z,98868.03
2019-01-27T11:40:39.663Z,98875.81
2019-01-27T11:43:26.013Z,98869.35
2019-01-27T11:46:11.071Z,98865.42
2019-01-27T11:49:03.021Z,98862.05
2019-01-27T11:51:55.051Z,98866.44
2019-01-27T11:54:25.632Z,98863.07
2019-01-27T11:56:55.391Z,98860.45
2019-01-27T11:59:25.147Z,98853.57
2019-01-27T12:01:55.431Z,98854.45
2019-01-27T12:04:25.410Z,98863.07
2019-01-27T12:06:55.712Z,98854.86
2019-01-27T12:09:25.484Z,98831.09
2019-01-27T12:11:55.251Z,98840.66
2019-01-27T12:14:25.538Z,98843.21
2019-01-27T12:16:55.177Z,98832.48
2019-01-27T12:19:24.942Z,98837.69
2019-01-27T12:21:55.022Z,98830.29
2019-01-27T12:24:25.020Z,98830.30
2019-01-27T12:26:55.038Z,98826.00
2019-01-27T12:29:25.787Z,98819.55
2019-01-27T12:31:55.547Z,98811.78
2019-01-27T12:34:25.405Z,98810.91
2019-01-27T12:36:55.479Z,98816.10
2019-01-27T12:39:25.290Z,98819.05
2019-01-27T12:41:55.147Z,98809.14
2019-01-27T12:44:25.092Z,98825.11
2019-01-27T12:46:55.067Z,98809.59
2019-01-27T12:49:24.997Z,98812.64
2019-01-27T12:51:55.062Z,98813.94
2019-01-27T12:54:24.755Z,98812.22
2019-01-27T12:56:54.445Z,98814.36
2019-01-27T12:59:24.155Z,98815.70
2019-01-27T13:01:53.949Z,98813.97
2019-01-27T13:04:23.860Z,98810.02
2019-01-27T13:06:53.467Z,98807.82
2019-01-27T13:09:23.279Z,98801.84
2019-01-27T13:11:52.996Z,98809.60
2019-01-27T13:14:22.575Z,98799.72
2019-01-27T13:16:52.452Z,98796.73
2019-01-27T13:19:22.802Z,98794.95
2019-01-27T13:21:52.399Z,98794.10
2019-01-27T13:24:22.284Z,98787.63
2019-01-27T13:26:51.886Z,98791.48
2019-01-27T13:29:21.652Z,98792.36
2019-01-27T13:31:51.742Z,98791.53
2019-01-27T13:34:21.817Z,98787.65
2019-01-27T13:36:51.830Z,98789.78
2019-01-27T13:39:21.600Z,98778.53
2019-01-27T13:41:51.533Z,98768.20
2019-01-27T13:44:21.177Z,98769.90
2019-01-27T13:46:50.842Z,98774.20
2019-01-27T13:49:21.049Z,98772.08
2019-01-27T13:51:51.267Z,98768.20
2019-01-27T13:54:21.398Z,98762.19
2019-01-27T13:56:51.314Z,98763.91
2019-01-27T13:59:21.099Z,98762.21
2019-01-27T14:01:52.313Z,98766.48
2019-01-27T14:04:22.296Z,98760.42
2019-01-27T14:06:52.253Z,98766.03
2019-01-27T14:09:21.808Z,98763.02
2019-01-27T14:11:51.634Z,98756.11
2019-01-27T14:14:21.386Z,98761.69
2019-01-27T14:16:51.047Z,98755.63
2019-01-27T14:19:20.792Z,98751.71
2019-01-27T14:21:50.538Z,98754.32
2019-01-27T14:24:20.416Z,98753.48
2019-01-27T14:26:49.923Z,98754.39
2019-01-27T14:29:19.672Z,98756.95
2019-01-27T14:31:49.437Z,98769.00
2019-01-27T14:34:19.119Z,98761.28
2019-01-27T14:36:48.663Z,98758.28
2019-01-27T14:39:18.448Z,98754.34
2019-01-27T14:41:48.400Z,98760.38
2019-01-27T14:44:18.096Z,98755.23
2019-01-27T14:46:47.805Z,98760.35
2019-01-27T14:49:17.395Z,98762.98
2019-01-27T14:51:47.319Z,98755.27
2019-01-27T14:54:17.141Z,98753.98
2019-01-27T14:56:46.956Z,98761.34
2019-01-27T14:59:16.770Z,98750.94
2019-01-27T15:01:46.483Z,98757.36
2019-01-27T15:04:16.341Z,98751.35
2019-01-27T15:06:46.278Z,98750.92
2019-01-27T15:09:15.976Z,98749.17
2019-01-27T15:11:45.734Z,98753.53
2019-01-27T15:14:15.464Z,98757.36
2019-01-27T15:16:45.183Z,98756.09
2019-01-27T15:19:15.282Z,98760.38
2019-01-27T15:21:45.338Z,98750.02
2019-01-27T15:24:15.220Z,98755.62
2019-01-27T15:26:45.199Z,98757.76
2019-01-27T15:29:15.303Z,98751.73
2019-01-27T15:31:45.759Z,98759.88
2019-01-27T15:34:15.675Z,98751.30
2019-01-27T15:36:45.806Z,98753.03
2019-01-27T15:39:15.906Z,98751.74
2019-01-27T15:41:45.770Z,98756.47
2019-01-27T15:44:15.407Z,98744.82
2019-01-27T15:46:45.157Z,98750.87
2019-01-27T15:49:14.779Z,98741.83
2019-01-27T15:51:44.408Z,98747.86
2019-01-27T15:54:14.123Z,98745.69
2019-01-27T15:56:43.801Z,98749.14
2019-01-27T15:59:13.572Z,98747.41
2019-01-27T16:01:43.321Z,98748.30
2019-01-27T16:04:13.009Z,98749.20
2019-01-27T16:06:42.759Z,98741.40
2019-01-27T16:09:12.472Z,98741.84
2019-01-27T16:11:42.246Z,98745.30
2019-01-27T16:14:12.010Z,98742.32
2019-01-27T16:16:41.692Z,98742.75
2019-01-27T16:19:11.309Z,98744.02
2019-01-27T16:21:40.874Z,98742.32
2019-01-27T16:24:19.229Z,98742.28
2019-01-27T16:26:48.849Z,98742.67
2019-01-27T16:29:20.177Z,98745.30
2019-01-27T16:32:02.379Z,98747.45
2019-01-27T16:34:37.971Z,98752.59
2019-01-27T16:37:07.843Z,98746.59
2019-01-27T16:39:37.680Z,98742.30
2019-01-27T16:42:07.439Z,98743.17
2019-01-27T16:44:37.080Z,98739.33
2019-01-27T16:47:07.105Z,98743.23
2019-01-27T16:49:37.039Z,98736.77
2019-01-27T16:52:06.984Z,98750.09
2019-01-27T16:54:36.686Z,98737.14
2019-01-27T16:57:06.451Z,98744.91
2019-01-27T16:59:36.427Z,98747.53
2019-01-27T17:02:06.503Z,98740.66
2019-01-27T17:04:36.244Z,98740.64
2019-01-27T17:07:07.147Z,98738.48
2019-01-27T17:09:37.093Z,98738.91
2019-01-27T17:12:06.901Z,98746.66
2019-01-27T17:14:36.901Z,98744.50
2019-01-27T17:17:07.020Z,98740.22
2019-01-27T17:19:36.963Z,98742.35
2019-01-27T17:22:07.279Z,98739.34
2019-01-27T17:24:37.170Z,98738.48
2019-01-27T17:27:07.160Z,98732.05
2019-01-27T17:29:37.071Z,98735.91
2019-01-27T17:32:07.038Z,98743.64
2019-01-27T17:34:36.707Z,98730.30
2019-01-27T17:37:06.480Z,98730.73
2019-01-27T17:39:36.269Z,98724.27
2019-01-27T17:42:14.581Z,98726.85
2019-01-27T17:44:44.600Z,98725.56
2019-01-27T17:47:21.876Z,98728.11
2019-01-27T17:49:51.522Z,98730.29
2019-01-27T17:52:21.632Z,98725.98
2019-01-27T17:54:51.502Z,98728.11
2019-01-27T17:57:42.756Z,98730.29
2019-01-27T18:00:30.443Z,98735.90
2019-01-27T18:03:06.801Z,98738.06
2019-01-27T18:05:48.993Z,98733.73
2019-01-27T18:08:44.107Z,98738.06
2019-01-27T18:11:28.105Z,98741.06
2019-01-27T18:14:08.598Z,98743.67
2019-01-27T18:16:38.298Z,98744.08
2019-01-27T18:19:11.001Z,98738.52
2019-01-27T18:21:41.122Z,98736.37
2019-01-27T18:24:10.956Z,98735.50
2019-01-27T18:26:40.787Z,98743.22
2019-01-27T18:29:10.705Z,98732.90
2019-01-27T18:31:40.918Z,98732.05
2019-01-27T18:34:10.764Z,98740.64
2019-01-27T18:36:40.458Z,98744.06
2019-01-27T18:39:13.964Z,98743.20
2019-01-27T18:41:48.158Z,98745.83
2019-01-27T18:44:18.193Z,98734.61
2019-01-27T18:46:48.130Z,98732.89
2019-01-27T18:49:18.032Z,98738.06
2019-01-27T18:51:48.289Z,98737.63
2019-01-27T18:54:37.539Z,98746.24
2019-01-27T18:57:18.413Z,98743.67
2019-01-27T18:59:57.604Z,98750.55
2019-01-27T19:02:58.301Z,98754.03
2019-01-27T19:05:47.238Z,98744.96
2019-01-27T19:08:49.654Z,98775.56
2019-01-27T19:11:38.131Z,98750.13
2019-01-27T19:14:28.641Z,98751.86
2019-01-27T19:17:10.863Z,98749.73
2019-01-27T19:20:09.892Z,98750.98
2019-01-27T19:23:13.938Z,98749.27
2019-01-27T19:26:02.982Z,98739.78
2019-01-27T19:28:58.164Z,98749.28
2019-01-27T19:31:49.961Z,98745.38
2019-01-27T19:34:41.743Z,98736.36
2019-01-27T19:37:33.404Z,98750.59
2019-01-27T19:40:37.301Z,98746.26
2019-01-27T19:43:41.159Z,98747.56
2019-01-27T19:46:19.315Z,98741.52
2019-01-27T19:49:06.213Z,98741.95
2019-01-27T19:51:49.894Z,98737.69
2019-01-27T19:54:38.888Z,98738.08
2019-01-27T19:57:47.283Z,98737.23
2019-01-27T20:00:35.190Z,98733.37
2019-01-27T20:03:24.690Z,98727.72
2019-01-27T20:06:11.427Z,98732.05
2019-01-27T20:08:54.805Z,98730.77
2019-01-27T20:11:43.889Z,98726.00
2019-01-27T20:14:32.155Z,98727.72
2019-01-27T20:17:12.846Z,98724.27
2019-01-27T20:19:53.914Z,98725.16
2019-01-27T20:22:41.283Z,98726.04
2019-01-27T20:25:28.666Z,98724.30
2019-01-27T20:28:23.399Z,98724.28
2019-01-27T20:31:15.214Z,98734.61
2019-01-27T20:34:06.636Z,98740.64
2019-01-27T20:37:01.175Z,98738.91
2019-01-27T20:39:49.983Z,98735.87
2019-01-27T20:42:38.468Z,98725.96
2019-01-27T20:45:18.881Z,98730.29
2019-01-27T20:48:02.470Z,98725.12
2019-01-27T20:50:54.241Z,98733.73
2019-01-27T20:53:43.244Z,98732.86
2019-01-27T20:56:29.204Z,98727.70
2019-01-27T20:59:06.787Z,98725.53
2019-01-27T21:01:43.249Z,98734.15
2019-01-27T21:04:25.466Z,98732.88
2019-01-27T21:07:17.713Z,98735.02
2019-01-27T21:10:21.597Z,98738.91
2019-01-27T21:13:06.106Z,98735.48
2019-01-27T21:15:47.909Z,98731.14
2019-01-27T21:18:36.617Z,98741.95
2019-01-27T21:21:06.497Z,98732.84
2019-01-27T21:23:36.199Z,98741.92
2019-01-27T21:26:09.541Z,98730.29
2019-01-27T21:28:39.226Z,98729.02
2019-01-27T21:31:08.770Z,98732.02
2019-01-27T21:33:39.580Z,98731.16
2019-01-27T21:36:09.087Z,98735.89
2019-01-27T21:38:38.804Z,98726.83
2019-01-27T21:41:08.901Z,98728.55
2019-01-27T21:43:38.508Z,98728.55
2019-01-27T21:46:09.349Z,98730.27
2019-01-27T21:48:39.002Z,98732.02
2019-01-27T21:51:08.574Z,98730.30
2019-01-27T21:53:38.194Z,98733.72
2019-01-27T21:56:08.136Z,98734.58
2019-01-27T21:58:37.689Z,98738.88
2019-01-27T22:01:07.443Z,98743.20
2019-01-27T22:03:37.083Z,98741.05
2019-01-27T22:06:06.848Z,98731.61
2019-01-27T22:08:36.395Z,98749.70
2019-01-27T22:11:06.361Z,98736.34
2019-01-27T22:13:36.176Z,98735.92
2019-01-27T22:16:05.943Z,98738.05
2019-01-27T22:18:35.515Z,98738.05
2019-01-27T22:21:05.234Z,98725.12
2019-01-27T22:23:34.867Z,98740.22
2019-01-27T22:26:04.776Z,98727.70
2019-01-27T22:28:34.576Z,98723.39
2019-01-27T22:31:04.465Z,98722.11
2019-01-27T22:33:34.093Z,98721.65
2019-01-27T22:36:03.870Z,98725.96
2019-01-27T22:38:33.506Z,98717.77
2019-01-27T22:41:03.370Z,98726.84
2019-01-27T22:43:33.099Z,98722.55
2019-01-27T22:46:02.752Z,98729.42
2019-01-27T22:48:32.420Z,98729.86
2019-01-27T22:51:02.028Z,98734.58
2019-01-27T22:53:31.722Z,98732.88
2019-01-27T22:56:01.545Z,98730.73
2019-01-27T22:58:31.464Z,98737.17
2019-01-27T23:01:06.641Z,98738.92
2019-01-27T23:03:40.933Z,98736.34
2019-01-27T23:06:10.624Z,98735.91
2019-01-27T23:08:40.200Z,98727.70
2019-01-27T23:11:09.806Z,98726.84
2019-01-27T23:13:39.394Z,98725.12
2019-01-27T23:16:09.204Z,98729.44
2019-01-27T23:18:38.801Z,98728.16
2019-01-27T23:21:08.462Z,98723.40
2019-01-27T23:23:38.146Z,98725.13
2019-01-27T23:26:07.906Z,98719.11
2019-01-27T23:28:37.513Z,98722.55
2019-01-27T23:31:07.474Z,98719.08
2019-01-27T23:33:37.023Z,98723.41
2019-01-27T23:36:07.155Z,98726.86
2019-01-27T23:38:36.778Z,98725.98
2019-01-27T23:41:06.446Z,98726.42
2019-01-27T23:43:36.171Z,98722.55
2019-01-27T23:46:06.218Z,98722.09
2019-01-27T23:48:35.742Z,98728.56
2019-01-27T23:51:05.626Z,98730.29
2019-01-27T23:53:35.305Z,98724.69
2019-01-27T23:56:05.056Z,98729.42
2019-01-27T23:58:34.612Z,98729.45
